createdAt,value
2019-02-08T00:00:27.720Z,-1.37
2019-02-08T00:02:59.853Z,-1.54
2019-02-08T00:05:32.198Z,-1.69
2019-02-08T00:08:04.552Z,-1.54
2019-02-08T00:10:36.902Z,-1.52
2019-02-08T00:13:09.019Z,-1.67
2019-02-08T00:15:41.243Z,-1.35
2019-02-08T00:18:13.997Z,-1.19
2019-02-08T00:20:46.402Z,-0.92
2019-02-08T00:23:26.207Z,-1.04
2019-02-08T00:25:53.000Z,-1.14
2019-02-08T00:28:25.339Z,-1.03
2019-02-08T00:30:57.454Z,-1.46
2019-02-08T00:33:29.510Z,-1.25
2019-02-08T00:36:01.575Z,-0.93
2019-02-08T00:38:34.389Z,-1.11
2019-02-08T00:41:06.890Z,-0.78
2019-02-08T00:43:39.220Z,-0.64
2019-02-08T00:46:11.294Z,-0.57
2019-02-08T00:48:43.356Z,-0.40
2019-02-08T00:51:15.610Z,-0.29
2019-02-08T00:53:48.049Z,-0.34
2019-02-08T00:56:20.434Z,-0.29
2019-02-08T00:58:52.623Z,-0.07
2019-02-08T01:01:25.035Z,-0.08
2019-02-08T01:03:57.389Z,0.03
2019-02-08T01:06:29.469Z,-0.36
2019-02-08T01:09:01.610Z,-0.53
2019-02-08T01:11:33.961Z,-0.50
2019-02-08T01:14:06.134Z,-0.48
2019-02-08T01:16:38.270Z,-0.53
2019-02-08T01:19:10.489Z,-0.75
2019-02-08T01:21:42.930Z,-0.75
2019-02-08T01:24:15.269Z,-1.02
2019-02-08T01:26:47.355Z,-1.16
2019-02-08T01:29:19.766Z,-0.99
2019-02-08T01:31:52.124Z,-1.05
2019-02-08T01:34:24.963Z,-1.00
2019-02-08T01:36:57.057Z,-0.99
2019-02-08T01:39:29.178Z,-0.94
2019-02-08T01:42:01.322Z,-1.06
2019-02-08T01:44:33.681Z,-0.99
2019-02-08T01:47:06.369Z,-1.00
2019-02-08T01:49:57.763Z,-1.15
2019-02-08T01:52:29.843Z,-1.03
2019-02-08T01:55:01.902Z,-1.03
2019-02-08T01:57:34.414Z,-1.01
2019-02-08T02:00:16.991Z,-0.86
2019-02-08T02:02:49.072Z,-0.98
2019-02-08T02:05:21.516Z,-1.23
2019-02-08T02:07:54.034Z,-1.37
2019-02-08T02:10:36.098Z,-1.61
2019-02-08T02:13:09.303Z,-1.69
2019-02-08T02:15:42.479Z,-1.66
2019-02-08T02:18:15.289Z,-1.74
2019-02-08T02:20:47.345Z,-1.63
2019-02-08T02:23:19.446Z,-1.81
2019-02-08T02:25:51.583Z,-1.71
2019-02-08T02:28:23.668Z,-1.82
2019-02-08T02:30:55.760Z,-1.69
2019-02-08T02:33:28.209Z,-1.61
2019-02-08T02:36:00.539Z,-1.68
2019-02-08T02:38:32.625Z,-1.48
2019-02-08T02:41:05.043Z,-1.29
2019-02-08T02:43:37.491Z,-1.11
2019-02-08T02:46:10.052Z,-0.81
2019-02-08T02:48:42.805Z,-1.04
2019-02-08T02:51:15.254Z,-1.16
2019-02-08T02:53:47.726Z,-1.03
2019-02-08T02:56:20.061Z,-0.95
2019-02-08T02:58:52.144Z,-1.16
2019-02-08T03:01:24.192Z,-1.42
2019-02-08T03:03:56.281Z,-1.57
2019-02-08T03:06:28.438Z,-1.69
2019-02-08T03:09:00.607Z,-1.89
2019-02-08T03:11:33.081Z,-1.84
2019-02-08T03:14:05.546Z,-1.95
2019-02-08T03:16:37.876Z,-2.11
2019-02-08T03:19:10.061Z,-1.89
2019-02-08T03:21:42.190Z,-1.59
2019-02-08T03:24:14.320Z,-2.10
2019-02-08T03:26:46.677Z,-2.04
2019-02-08T03:29:19.044Z,-1.85
2019-02-08T03:31:51.505Z,-2.01
2019-02-08T03:34:23.856Z,-1.93
2019-02-08T03:36:55.930Z,-2.05
2019-02-08T03:39:28.037Z,-2.30
2019-02-08T03:42:00.099Z,-2.09
2019-02-08T03:44:32.164Z,-2.05
2019-02-08T03:47:04.237Z,-2.13
2019-02-08T03:49:37.000Z,-2.21
2019-02-08T03:52:09.173Z,-2.34
2019-02-08T03:54:41.256Z,-2.01
2019-02-08T03:57:13.327Z,-2.05
2019-02-08T03:59:45.943Z,-2.10
2019-02-08T04:02:18.408Z,-1.85
2019-02-08T04:04:50.758Z,-1.85
2019-02-08T04:07:23.099Z,-1.61
2019-02-08T04:09:55.181Z,-1.67
2019-02-08T04:12:27.245Z,-1.41
2019-02-08T04:14:59.317Z,-1.88
2019-02-08T04:17:31.391Z,-1.69
2019-02-08T04:20:03.466Z,-1.89
2019-02-08T04:22:36.116Z,-1.78
2019-02-08T04:25:09.478Z,-1.85
2019-02-08T04:27:41.578Z,-1.79
2019-02-08T04:30:19.251Z,-1.74
2019-02-08T04:32:51.309Z,-1.87
2019-02-08T04:35:23.851Z,-1.87
2019-02-08T04:37:56.276Z,-1.81
2019-02-08T04:40:29.237Z,-1.39
2019-02-08T04:43:01.610Z,-1.36
2019-02-08T04:45:33.656Z,-1.35
2019-02-08T04:48:06.125Z,-1.09
2019-02-08T04:50:38.494Z,-0.78
2019-02-08T04:53:10.558Z,-0.58
2019-02-08T04:55:42.898Z,-0.43
2019-02-08T04:58:15.620Z,-0.35
2019-02-08T05:00:47.969Z,-0.39
2019-02-08T05:03:20.027Z,-0.42
2019-02-08T05:05:52.118Z,-0.34
2019-02-08T05:08:24.189Z,-0.20
2019-02-08T05:10:56.572Z,-0.19
2019-02-08T05:13:29.248Z,-0.13
2019-02-08T05:16:01.698Z,-0.05
2019-02-08T05:18:34.038Z,-0.02
2019-02-08T05:21:06.136Z,0.06
2019-02-08T05:23:38.447Z,0.02
2019-02-08T05:26:11.182Z,0.15
2019-02-08T05:28:44.377Z,0.09
2019-02-08T05:31:16.546Z,0.13
2019-02-08T05:33:48.617Z,0.08
2019-02-08T05:36:21.553Z,0.16
2019-02-08T05:38:53.965Z,0.16
2019-02-08T05:41:26.450Z,0.26
2019-02-08T05:43:59.226Z,0.29
2019-02-08T05:46:32.421Z,0.32
2019-02-08T05:49:05.199Z,0.26
2019-02-08T05:51:37.721Z,0.18
2019-02-08T05:54:10.116Z,0.11
2019-02-08T05:56:42.473Z,0.02
2019-02-08T05:59:14.573Z,-0.07
2019-02-08T06:01:46.635Z,0.08
2019-02-08T06:04:18.710Z,-0.01
2019-02-08T06:06:51.408Z,-0.01
2019-02-08T06:09:23.873Z,-0.05
2019-02-08T06:11:56.217Z,-0.05
2019-02-08T06:14:28.276Z,0.07
2019-02-08T06:17:00.387Z,0.03
2019-02-08T06:19:32.483Z,0.01
2019-02-08T06:22:04.762Z,0.09
2019-02-08T06:24:37.145Z,0.11
2019-02-08T06:27:09.350Z,0.01
2019-02-08T06:29:41.696Z,0.04
2019-02-08T06:32:13.750Z,0.10
2019-02-08T06:34:45.838Z,0.09
2019-02-08T06:37:17.897Z,0.17
2019-02-08T06:39:49.968Z,0.04
2019-02-08T06:42:22.046Z,0.06
2019-02-08T06:44:54.111Z,0.08
2019-02-08T06:47:26.363Z,0.14
2019-02-08T06:49:58.830Z,0.28
2019-02-08T06:52:31.512Z,0.36
2019-02-08T06:55:10.612Z,0.34
2019-02-08T06:57:46.059Z,0.44
2019-02-08T07:00:42.621Z,0.37
2019-02-08T07:03:33.586Z,0.39
2019-02-08T07:06:24.792Z,0.36
2019-02-08T07:09:18.803Z,0.34
2019-02-08T07:12:08.605Z,0.36
2019-02-08T07:14:58.250Z,0.37
2019-02-08T07:18:01.350Z,0.35
2019-02-08T07:21:00.766Z,0.16
2019-02-08T07:23:57.497Z,0.23
2019-02-08T07:26:57.532Z,0.26
2019-02-08T07:29:47.097Z,0.32
2019-02-08T07:32:30.054Z,0.31
2019-02-08T07:35:33.636Z,0.41
2019-02-08T07:38:15.144Z,0.38
2019-02-08T07:41:20.654Z,0.37
2019-02-08T07:44:16.879Z,0.38
2019-02-08T07:47:07.251Z,0.44
2019-02-08T07:49:55.268Z,0.50
2019-02-08T07:52:45.346Z,0.54
2019-02-08T07:55:38.354Z,0.53
2019-02-08T07:58:35.681Z,0.59
2019-02-08T08:01:42.194Z,0.52
2019-02-08T08:04:31.985Z,0.66
2019-02-08T08:07:18.599Z,0.80
2019-02-08T08:10:08.486Z,0.96
2019-02-08T08:12:53.057Z,1.08
2019-02-08T08:15:41.617Z,1.29
2019-02-08T08:18:37.019Z,1.39
2019-02-08T08:21:43.162Z,1.48
2019-02-08T08:24:37.726Z,1.59
2019-02-08T08:27:24.528Z,1.64
2019-02-08T08:30:11.636Z,1.64
2019-02-08T08:33:23.967Z,1.73
2019-02-08T08:36:37.697Z,1.74
2019-02-08T08:40:15.057Z,1.73
2019-02-08T08:43:51.887Z,1.81
2019-02-08T08:46:59.956Z,1.88
2019-02-08T08:50:07.415Z,2.05
2019-02-08T08:53:31.127Z,2.06
2019-02-08T08:56:56.546Z,2.09
2019-02-08T09:00:36.986Z,2.19
2019-02-08T09:04:19.592Z,2.31
2019-02-08T09:07:53.577Z,2.42
2019-02-08T09:11:28.239Z,2.66
2019-02-08T09:14:59.294Z,2.76
2019-02-08T09:18:40.260Z,2.97
2019-02-08T09:22:07.911Z,3.16
2019-02-08T09:25:40.619Z,3.27
2019-02-08T09:29:06.640Z,3.35
2019-02-08T09:32:29.972Z,3.55
2019-02-08T09:35:48.591Z,3.68
2019-02-08T09:39:27.932Z,3.81
2019-02-08T09:43:02.429Z,3.87
2019-02-08T09:46:15.475Z,4.10
2019-02-08T09:49:49.707Z,4.18
2019-02-08T09:53:23.103Z,4.26
2019-02-08T09:57:01.787Z,4.40
2019-02-08T10:00:01.461Z,4.61
2019-02-08T10:03:18.268Z,4.75
2019-02-08T10:07:06.755Z,4.84
2019-02-08T10:11:03.696Z,4.90
2019-02-08T10:14:56.310Z,5.04
2019-02-08T10:18:33.371Z,5.23
2019-02-08T10:22:13.873Z,5.66
2019-02-08T10:25:39.400Z,5.64
2019-02-08T10:29:23.935Z,6.07
2019-02-08T10:32:54.808Z,6.26
2019-02-08T10:36:20.929Z,6.13
2019-02-08T10:39:43.614Z,6.32
2019-02-08T10:42:59.082Z,6.56
2019-02-08T10:46:26.425Z,6.65
2019-02-08T10:50:08.398Z,6.57
2019-02-08T10:53:53.263Z,6.93
2019-02-08T10:57:27.900Z,6.56
2019-02-08T11:00:56.695Z,6.97
2019-02-08T11:04:27.780Z,6.87
2019-02-08T11:08:08.797Z,6.77
2019-02-08T11:12:01.278Z,7.30
2019-02-08T11:15:44.692Z,6.96
2019-02-08T11:19:19.274Z,7.03
2019-02-08T11:21:53.832Z,6.93
2019-02-08T11:24:28.464Z,7.19
2019-02-08T11:27:03.172Z,7.25
2019-02-08T11:29:35.844Z,7.57
2019-02-08T11:32:09.395Z,7.45
2019-02-08T11:34:42.112Z,7.57
2019-02-08T11:37:14.750Z,7.46
2019-02-08T11:39:47.199Z,7.70
2019-02-08T11:42:19.550Z,7.83
2019-02-08T11:44:51.617Z,7.87
2019-02-08T11:47:23.684Z,8.05
2019-02-08T11:49:55.748Z,8.42
2019-02-08T11:52:27.801Z,8.50
2019-02-08T11:54:59.872Z,8.56
2019-02-08T11:57:32.285Z,8.47
2019-02-08T12:00:06.340Z,8.92
2019-02-08T12:02:40.598Z,8.54
2019-02-08T12:05:14.002Z,9.06
2019-02-08T12:07:46.357Z,9.26
2019-02-08T12:10:18.741Z,8.77
2019-02-08T12:12:51.093Z,8.62
2019-02-08T12:15:24.204Z,9.25
2019-02-08T12:17:56.275Z,9.03
2019-02-08T12:20:28.343Z,9.02
2019-02-08T12:23:00.402Z,8.94
2019-02-08T12:25:32.471Z,9.04
2019-02-08T12:28:04.934Z,9.34
2019-02-08T12:30:39.878Z,8.99
2019-02-08T12:33:12.529Z,8.82
2019-02-08T12:35:44.887Z,8.87
2019-02-08T12:38:16.942Z,8.63
2019-02-08T12:40:49.098Z,9.20
2019-02-08T12:43:21.460Z,8.52
2019-02-08T12:45:53.798Z,8.87
2019-02-08T12:48:26.478Z,9.19
2019-02-08T12:50:58.798Z,9.23
2019-02-08T12:53:31.562Z,9.08
2019-02-08T12:56:04.234Z,9.16
2019-02-08T12:58:36.671Z,9.39
2019-02-08T13:01:09.017Z,9.36
2019-02-08T13:03:41.441Z,9.41
2019-02-08T13:06:13.787Z,9.40
2019-02-08T13:08:46.492Z,9.89
2019-02-08T13:11:18.813Z,9.40
2019-02-08T13:13:51.221Z,9.23
2019-02-08T13:16:23.664Z,9.33
2019-02-08T13:18:56.392Z,9.17
2019-02-08T13:21:28.717Z,9.06
2019-02-08T13:24:00.842Z,9.22
2019-02-08T13:26:33.256Z,9.56
2019-02-08T13:29:06.296Z,9.54
2019-02-08T13:31:38.345Z,9.95
2019-02-08T13:34:11.078Z,10.09
2019-02-08T13:36:43.427Z,9.69
2019-02-08T13:39:15.877Z,9.31
2019-02-08T13:41:48.360Z,10.38
2019-02-08T13:44:21.001Z,9.25
2019-02-08T13:46:53.416Z,9.14
2019-02-08T13:49:26.070Z,10.15
2019-02-08T13:51:58.446Z,10.17
2019-02-08T13:54:30.915Z,10.76
2019-02-08T13:57:04.100Z,10.59
2019-02-08T13:59:35.082Z,9.12
2019-02-08T14:02:07.043Z,9.53
2019-02-08T14:04:39.166Z,9.47
2019-02-08T14:07:11.490Z,9.49
2019-02-08T14:09:43.845Z,8.92
2019-02-08T14:12:16.160Z,8.58
2019-02-08T14:14:48.931Z,8.62
2019-02-08T14:17:21.282Z,8.99
2019-02-08T14:19:53.622Z,9.51
2019-02-08T14:22:26.071Z,9.07
2019-02-08T14:24:58.390Z,9.07
2019-02-08T14:27:30.726Z,9.23
2019-02-08T14:30:03.290Z,8.79
2019-02-08T14:32:35.876Z,8.48
2019-02-08T14:35:10.548Z,8.51
2019-02-08T14:37:43.554Z,8.64
2019-02-08T14:40:20.399Z,8.45
2019-02-08T14:42:53.226Z,8.95
2019-02-08T14:45:25.575Z,9.24
2019-02-08T14:47:57.895Z,8.35
2019-02-08T14:50:30.001Z,8.07
2019-02-08T14:53:02.628Z,7.93
2019-02-08T14:55:35.251Z,8.19
2019-02-08T14:58:09.786Z,7.68
2019-02-08T15:00:42.605Z,7.62
2019-02-08T15:03:15.280Z,7.62
2019-02-08T15:05:47.682Z,7.88
2019-02-08T15:08:20.329Z,7.68
2019-02-08T15:10:53.313Z,7.59
2019-02-08T15:13:25.644Z,7.61
2019-02-08T15:15:57.896Z,7.74
2019-02-08T15:18:30.299Z,7.20
2019-02-08T15:21:02.813Z,6.76
2019-02-08T15:23:37.523Z,7.08
2019-02-08T15:26:10.082Z,6.88
2019-02-08T15:28:42.455Z,6.70
2019-02-08T15:31:14.525Z,6.66
2019-02-08T15:33:46.635Z,6.80
2019-02-08T15:36:19.280Z,6.77
2019-02-08T15:38:51.333Z,6.76
2019-02-08T15:41:23.416Z,6.58
2019-02-08T15:43:55.842Z,6.57
2019-02-08T15:46:28.264Z,6.48
2019-02-08T15:49:00.606Z,6.23
2019-02-08T15:51:32.838Z,6.30
2019-02-08T15:54:05.500Z,6.18
2019-02-08T15:56:38.001Z,6.13
2019-02-08T15:59:10.329Z,5.90
2019-02-08T16:01:42.800Z,5.88
2019-02-08T16:04:15.119Z,5.40
2019-02-08T16:06:47.542Z,5.26
2019-02-08T16:09:19.874Z,5.24
2019-02-08T16:11:51.998Z,5.29
2019-02-08T16:14:24.179Z,5.38
2019-02-08T16:16:56.574Z,5.15
2019-02-08T16:19:28.617Z,5.25
2019-02-08T16:22:00.687Z,5.16
2019-02-08T16:24:32.862Z,5.04
2019-02-08T16:27:06.033Z,4.81
2019-02-08T16:29:38.645Z,4.84
2019-02-08T16:32:10.638Z,4.54
2019-02-08T16:34:42.899Z,4.66
2019-02-08T16:37:15.250Z,4.50
2019-02-08T16:39:47.336Z,4.41
2019-02-08T16:42:19.417Z,4.40
2019-02-08T16:44:51.470Z,4.42
2019-02-08T16:47:23.624Z,4.23
2019-02-08T16:49:56.154Z,4.12
2019-02-08T16:52:28.798Z,3.91
2019-02-08T16:55:01.135Z,3.80
2019-02-08T16:57:33.327Z,3.75
2019-02-08T17:00:14.892Z,3.74
2019-02-08T17:02:47.805Z,3.73
2019-02-08T17:05:21.508Z,3.62
2019-02-08T17:07:54.145Z,3.45
2019-02-08T17:10:26.644Z,3.42
2019-02-08T17:12:59.123Z,3.34
2019-02-08T17:15:31.714Z,3.35
2019-02-08T17:18:04.392Z,3.28
2019-02-08T17:20:40.409Z,3.27
2019-02-08T17:23:13.067Z,3.19
2019-02-08T17:25:45.127Z,3.16
2019-02-08T17:28:17.757Z,3.07
2019-02-08T17:30:50.193Z,2.98
2019-02-08T17:33:22.541Z,2.87
2019-02-08T17:35:54.994Z,2.83
2019-02-08T17:38:28.428Z,2.88
2019-02-08T17:41:01.246Z,2.89
2019-02-08T17:43:34.179Z,2.94
2019-02-08T17:46:07.252Z,2.90
2019-02-08T17:48:39.614Z,2.90
2019-02-08T17:51:11.692Z,2.79
2019-02-08T17:53:43.910Z,2.73
2019-02-08T17:56:16.245Z,2.71
2019-02-08T17:58:48.388Z,2.65
2019-02-08T18:01:20.699Z,2.64
2019-02-08T18:03:53.153Z,2.55
2019-02-08T18:06:25.912Z,2.40
2019-02-08T18:08:58.395Z,2.38
2019-02-08T18:11:30.795Z,2.32
2019-02-08T18:14:03.307Z,2.28
2019-02-08T18:16:35.630Z,2.28
2019-02-08T18:19:07.705Z,2.21
2019-02-08T18:21:39.748Z,2.28
2019-02-08T18:24:12.713Z,2.27
2019-02-08T18:26:45.224Z,2.34
2019-02-08T18:29:17.651Z,2.35
2019-02-08T18:31:50.007Z,2.34
2019-02-08T18:34:22.125Z,2.21
2019-02-08T18:36:54.208Z,2.19
2019-02-08T18:39:26.868Z,2.27
2019-02-08T18:41:58.945Z,2.35
2019-02-08T18:44:31.744Z,2.35
2019-02-08T18:47:04.191Z,2.39
2019-02-08T18:49:36.540Z,2.46
2019-02-08T18:52:09.012Z,2.55
2019-02-08T18:54:41.551Z,2.45
2019-02-08T18:57:13.939Z,2.38
2019-02-08T18:59:46.377Z,2.45
2019-02-08T19:02:19.067Z,2.58
2019-02-08T19:04:51.427Z,2.57
2019-02-08T19:07:23.520Z,2.53
2019-02-08T19:09:55.913Z,2.64
2019-02-08T19:12:28.265Z,2.53
2019-02-08T19:15:00.521Z,2.42
2019-02-08T19:17:33.261Z,2.36
2019-02-08T19:20:06.666Z,2.39
2019-02-08T19:22:39.734Z,2.45
2019-02-08T19:25:16.478Z,2.46
2019-02-08T19:27:49.124Z,2.41
2019-02-08T19:30:25.136Z,2.47
2019-02-08T19:32:57.777Z,2.46
2019-02-08T19:35:29.964Z,2.37
2019-02-08T19:38:02.037Z,2.30
2019-02-08T19:40:37.508Z,2.27
2019-02-08T19:43:10.382Z,2.30
2019-02-08T19:45:42.869Z,2.22
2019-02-08T19:48:15.228Z,2.25
2019-02-08T19:50:48.056Z,2.24
2019-02-08T19:53:20.412Z,2.13
2019-02-08T19:55:52.525Z,2.23
2019-02-08T19:58:24.927Z,2.22
2019-02-08T20:00:57.328Z,2.27
2019-02-08T20:03:29.431Z,2.28
2019-02-08T20:06:02.942Z,2.19
2019-02-08T20:08:35.646Z,2.18
2019-02-08T20:11:08.013Z,2.22
2019-02-08T20:13:40.119Z,2.23
2019-02-08T20:16:12.203Z,2.30
2019-02-08T20:18:44.330Z,2.31
2019-02-08T20:21:16.687Z,2.30
2019-02-08T20:23:49.236Z,2.25
2019-02-08T20:26:21.583Z,2.19
2019-02-08T20:28:53.654Z,2.06
2019-02-08T20:31:26.299Z,2.12
2019-02-08T20:33:58.426Z,2.01
2019-02-08T20:36:30.620Z,1.98
2019-02-08T20:39:03.276Z,2.00
2019-02-08T20:41:35.869Z,1.92
2019-02-08T20:44:08.317Z,1.92
2019-02-08T20:46:40.807Z,1.85
2019-02-08T20:49:13.263Z,1.76
2019-02-08T20:51:45.676Z,1.74
2019-02-08T20:54:17.828Z,1.64
2019-02-08T20:56:50.032Z,1.60
2019-02-08T20:59:22.711Z,1.71
2019-02-08T21:01:55.244Z,1.71
2019-02-08T21:04:28.302Z,1.84
2019-02-08T21:07:00.810Z,1.82
2019-02-08T21:09:33.561Z,1.79
2019-02-08T21:12:06.383Z,1.76
2019-02-08T21:14:39.373Z,1.84
2019-02-08T21:17:12.027Z,1.74
2019-02-08T21:19:44.545Z,1.68
2019-02-08T21:22:17.070Z,1.72
2019-02-08T21:24:50.451Z,1.84
2019-02-08T21:27:24.163Z,1.80
2019-02-08T21:29:56.818Z,1.94
2019-02-08T21:32:29.206Z,1.93
2019-02-08T21:35:01.878Z,1.93
2019-02-08T21:37:34.584Z,1.84
2019-02-08T21:40:10.116Z,1.77
2019-02-08T21:42:43.128Z,1.74
2019-02-08T21:45:21.668Z,1.83
2019-02-08T21:47:55.223Z,1.78
2019-02-08T21:50:27.817Z,1.80
2019-02-08T21:53:00.535Z,1.66
2019-02-08T21:55:33.418Z,1.81
2019-02-08T21:58:06.556Z,1.85
2019-02-08T22:00:41.381Z,1.65
2019-02-08T22:03:14.200Z,1.59
2019-02-08T22:05:55.967Z,1.54
2019-02-08T22:08:28.644Z,1.46
2019-02-08T22:11:00.697Z,1.43
2019-02-08T22:13:33.187Z,1.25
2019-02-08T22:16:06.519Z,1.27
2019-02-08T22:18:37.545Z,1.17
2019-02-08T22:21:09.640Z,1.00
2019-02-08T22:23:42.009Z,0.96
2019-02-08T22:26:14.051Z,1.02
2019-02-08T22:28:46.983Z,0.96
2019-02-08T22:31:19.315Z,1.01
2019-02-08T22:33:51.390Z,1.12
2019-02-08T22:36:23.445Z,1.11
2019-02-08T22:38:56.084Z,1.28
2019-02-08T22:41:28.198Z,1.31
2019-02-08T22:44:00.443Z,1.32
2019-02-08T22:46:33.177Z,1.30
2019-02-08T22:49:05.847Z,1.34
2019-02-08T22:51:38.278Z,1.42
2019-02-08T22:54:10.436Z,1.46
2019-02-08T22:56:42.793Z,1.62
2019-02-08T22:59:21.805Z,1.53
2019-02-08T23:01:53.159Z,1.43
2019-02-08T23:04:25.620Z,1.41
2019-02-08T23:06:58.040Z,1.27
2019-02-08T23:09:30.484Z,1.32
2019-02-08T23:12:03.454Z,1.33
2019-02-08T23:14:36.136Z,1.33
2019-02-08T23:17:08.774Z,1.42
2019-02-08T23:19:42.387Z,1.42
2019-02-08T23:22:14.771Z,1.33
2019-02-08T23:24:47.215Z,1.38
2019-02-08T23:27:19.596Z,1.47
2019-02-08T23:29:51.662Z,1.52
2019-02-08T23:32:24.052Z,1.50
2019-02-08T23:34:56.405Z,1.44
2019-02-08T23:37:28.722Z,1.52
2019-02-08T23:40:01.217Z,1.50
2019-02-08T23:42:33.622Z,1.49
2019-02-08T23:45:08.673Z,1.43
2019-02-08T23:47:40.734Z,1.48
2019-02-08T23:50:12.930Z,1.40
2019-02-08T23:52:45.297Z,1.52
2019-02-08T23:55:17.884Z,1.42
2019-02-08T23:57:50.604Z,1.45
